Stations météo

réclame
Mon MeteoGroup
Kristianstad, Suède (2651): Température de l'air & dewpoint: 08.08.2018 08:00:00 - 14.08.2018 08:00:00 (CEST)Kristianstad, Suède (2651): Vitesse du vent: 08.08.2018 08:00:00 - 14.08.2018 08:00:00 (CEST)Kristianstad, Suède (2651): Direction du vent: 08.08.2018 08:00:00 - 14.08.2018 08:00:00 (CEST)Kristianstad, Suède (2651): visibility: 08.08.2018 08:00:00 - 14.08.2018 08:00:00 (CEST)
Date & Time tt [°C] td [°C] ff [km/h] ff [knt] dd vv [km]
14.08.2018 08:00:00 18,0 18,0 15 8 ENE 10
14.08.2018 07:00:00 18,0 17,0 15 8 ENE 10
14.08.2018 06:00:00 17,0 17,0 11 6 ENE 10
14.08.2018 05:00:00 17,0 17,0 9 5 NE 7
14.08.2018 04:00:00 17,0 16,0 5 3 NE 8
14.08.2018 03:00:00 17,0 16,0 8 4 NE 9
14.08.2018 02:00:00 17,0 16,0 5 3 ENE 10
14.08.2018 01:00:00 17,0 16,0 9 5 NE 10
14.08.2018 00:00:00 17,0 16,0 5 3 E 10
13.08.2018 23:00:00 17,0 16,0 4 2 - 10
13.08.2018 22:00:00 17,0 16,0 5 3 - 10
13.08.2018 21:00:00 17,0 16,0 5 3 - 10
13.08.2018 20:00:00 17,0 16,0 8 4 E 10
13.08.2018 19:00:00 17,0 16,0 9 5 E 10
13.08.2018 18:00:00 17,0 16,0 13 7 E 10
13.08.2018 17:00:00 17,0 17,0 11 6 E 10
13.08.2018 16:00:00 17,0 17,0 9 5 E 10
13.08.2018 15:00:00 17,0 16,0 11 6 E 10
13.08.2018 14:00:00 16,0 16,0 9 5 ENE 10
13.08.2018 13:00:00 16,0 16,0 8 4 ENE 10
13.08.2018 12:00:00 15,0 15,0 4 2 - 10
13.08.2018 11:00:00 15,0 14,0 4 2 - 10
13.08.2018 10:00:00 14,0 14,0 0 0 N 10
13.08.2018 09:00:00 14,0 14,0 4 2 ENE 5
13.08.2018 08:00:00 13,0 13,0 4 2 - 6
13.08.2018 07:00:00 13,0 13,0 4 2 - 5
13.08.2018 06:00:00 12,0 12,0 4 2 - 9
13.08.2018 05:00:00 12,0 12,0 4 2 E 10
13.08.2018 04:00:00 12,0 12,0 5 3 ESE 9
13.08.2018 03:00:00 12,0 12,0 4 2 SE 8
13.08.2018 02:00:00 12,0 12,0 4 2 SE 10
13.08.2018 01:00:00 12,0 12,0 4 2 SSE 10
13.08.2018 00:00:00 12,0 12,0 4 2 S 10
12.08.2018 23:00:00 13,0 12,0 4 2 SSW 10
12.08.2018 22:00:00 13,0 12,0 4 2 - 10
12.08.2018 21:00:00 13,0 12,0 2 1 W 10
12.08.2018 20:00:00 14,0 12,0 9 5 W 10
12.08.2018 19:00:00 15,0 13,0 8 4 W 10
12.08.2018 18:00:00 15,0 13,0 18 10 W 10
12.08.2018 17:00:00 18,0 10,0 13 7 W 10
12.08.2018 16:00:00 19,0 10,0 18 10 W 10
12.08.2018 15:00:00 17,0 10,0 11 6 WNW 10
12.08.2018 14:00:00 19,0 8,0 18 10 W 10
12.08.2018 13:00:00 18,0 10,0 22 12 SW 10
12.08.2018 12:00:00 18,0 10,0 18 10 WSW 10
12.08.2018 11:00:00 18,0 9,0 22 12 W 10
12.08.2018 10:00:00 17,0 9,0 22 12 W 10
12.08.2018 09:00:00 16,0 10,0 24 13 WSW 10
12.08.2018 08:00:00 16,0 10,0 22 12 WSW 10
12.08.2018 07:00:00 14,0 10,0 18 10 WSW 10
12.08.2018 06:00:00 13,0 10,0 18 10 W 10
12.08.2018 05:00:00 13,0 10,0 21 11 WSW 10
12.08.2018 04:00:00 14,0 11,0 22 12 WSW 10
12.08.2018 03:00:00 13,0 11,0 21 11 W 10
12.08.2018 02:00:00 13,0 11,0 22 12 W 10
12.08.2018 01:00:00 13,0 12,0 13 7 WSW 10
12.08.2018 00:00:00 13,0 12,0 13 7 W 10
11.08.2018 23:00:00 13,0 12,0 15 8 W 10
11.08.2018 22:00:00 14,0 10,0 11 6 WSW 10
11.08.2018 21:00:00 15,0 10,0 11 6 WSW 10
11.08.2018 20:00:00 16,0 10,0 11 6 SSW 10
11.08.2018 19:00:00 18,0 9,0 18 10 SSW 10
11.08.2018 18:00:00 18,0 10,0 26 14 SW 10
11.08.2018 17:00:00 19,0 10,0 16 9 SSW 10
11.08.2018 16:00:00 20,0 9,0 29 16 SW 10
11.08.2018 15:00:00 21,0 10,0 26 14 SW 10
11.08.2018 14:00:00 22,0 11,0 26 14 SW 10
11.08.2018 13:00:00 24,0 9,0 28 15 S 10
11.08.2018 12:00:00 22,0 13,0 21 11 ESE 10
11.08.2018 11:00:00 23,0 12,0 21 11 SSE 10
11.08.2018 10:00:00 21,0 13,0 22 12 S 10
11.08.2018 09:00:00 19,0 14,0 11 6 SSE 10
11.08.2018 08:00:00 16,0 13,0 4 2 ESE 10
11.08.2018 07:00:00 13,0 11,0 0 0 N 10
11.08.2018 06:00:00 11,0 10,0 4 2 SSE 10
11.08.2018 05:00:00 14,0 10,0 13 7 SSW 10
11.08.2018 04:00:00 11,0 9,0 2 1 S 10
11.08.2018 03:00:00 12,0 10,0 4 2 ESE 10
11.08.2018 02:00:00 12,0 9,0 5 3 SE 10
11.08.2018 01:00:00 13,0 9,0 8 4 SSE 10
11.08.2018 00:00:00 13,0 9,0 9 5 S 10
10.08.2018 23:00:00 12,0 9,0 5 3 S -
10.08.2018 22:00:00 16,0 10,0 9 5 SSW 10
10.08.2018 21:00:00 - - - - - -
10.08.2018 20:00:00 20,0 - 15 8 WSW 10
10.08.2018 19:00:00 21,0 8,0 18 10 WSW 10
10.08.2018 18:00:00 22,0 8,0 26 14 WSW 10
10.08.2018 17:00:00 22,0 11,0 22 12 WSW 10
10.08.2018 16:00:00 22,0 10,0 24 13 W 10
10.08.2018 15:00:00 22,0 12,0 22 12 WSW 10
10.08.2018 14:00:00 22,0 12,0 28 15 WSW 10
10.08.2018 13:00:00 23,0 13,0 28 15 SW 10
10.08.2018 12:00:00 22,0 14,0 22 12 SW 10
10.08.2018 11:00:00 21,0 15,0 29 16 SW 10
10.08.2018 10:00:00 21,0 16,0 31 17 SW 10
10.08.2018 09:00:00 21,0 16,0 21 11 SW 10
10.08.2018 08:00:00 20,0 17,0 22 12 SSW 10
10.08.2018 07:00:00 20,0 18,0 11 6 SSW 10
10.08.2018 06:00:00 19,0 19,0 13 7 SE 10
10.08.2018 05:00:00 18,0 18,0 8 4 SSE 6
10.08.2018 04:00:00 19,0 19,0 5 3 SSE 7
10.08.2018 03:00:00 19,0 19,0 2 1 - 10
10.08.2018 02:00:00 20,0 19,0 15 8 W 1,0
10.08.2018 01:00:00 22,0 18,0 9 5 ESE 10
10.08.2018 00:00:00 21,0 17,0 8 4 E 10
09.08.2018 23:00:00 20,0 17,0 8 4 SE 10
09.08.2018 22:00:00 20,0 18,0 5 3 ESE 10
09.08.2018 21:00:00 22,0 18,0 11 6 SE 10
09.08.2018 20:00:00 23,0 18,0 18 10 ESE 10
09.08.2018 19:00:00 24,0 16,0 15 8 ESE 10
09.08.2018 18:00:00 25,0 17,0 18 10 ESE 10
09.08.2018 17:00:00 27,0 16,0 16 9 SE 10
09.08.2018 16:00:00 27,0 16,0 21 11 SE 10
09.08.2018 15:00:00 26,0 17,0 16 9 ESE 10
09.08.2018 14:00:00 28,0 13,0 9 5 S 10
09.08.2018 13:00:00 26,0 14,0 11 6 WSW 10
09.08.2018 12:00:00 25,0 14,0 15 8 WSW 10
09.08.2018 11:00:00 25,0 15,0 9 5 WNW 10
09.08.2018 10:00:00 23,0 16,0 8 4 W 10
09.08.2018 09:00:00 22,0 17,0 9 5 WNW 10
09.08.2018 08:00:00 20,0 17,0 8 4 W 10
09.08.2018 07:00:00 19,0 18,0 4 2 - 10
09.08.2018 06:00:00 19,0 18,0 5 3 W 7
09.08.2018 05:00:00 20,0 18,0 8 4 W 10
09.08.2018 04:00:00 20,0 18,0 11 6 WNW 10
09.08.2018 03:00:00 21,0 19,0 8 4 WNW 10
09.08.2018 02:00:00 22,0 19,0 13 7 WNW 10
09.08.2018 01:00:00 23,0 20,0 15 8 W 10
09.08.2018 00:00:00 24,0 17,0 9 5 W 10
08.08.2018 23:00:00 23,0 17,0 13 7 SSW 10
08.08.2018 22:00:00 22,0 20,0 11 6 S 10
08.08.2018 21:00:00 22,0 19,0 13 7 SSW 10
08.08.2018 20:00:00 26,0 21,0 9 5 SE 10
08.08.2018 19:00:00 28,0 20,0 11 6 ESE 10
08.08.2018 18:00:00 29,0 20,0 16 9 SE 10
08.08.2018 17:00:00 30,0 18,0 24 13 SE 10
08.08.2018 16:00:00 29,0 17,0 24 13 ESE 10
08.08.2018 15:00:00 29,0 17,0 21 11 ESE 10
08.08.2018 14:00:00 27,0 19,0 22 12 E 10
08.08.2018 13:00:00 31,0 14,0 21 11 SE 10
08.08.2018 12:00:00 30,0 18,0 34 18 S 10
08.08.2018 11:00:00 28,0 17,0 18 10 SE 10
08.08.2018 10:00:00 27,0 17,0 16 9 SE 10
08.08.2018 09:00:00 25,0 18,0 15 8 SE 10
08.08.2018 08:00:00 20,0 19,0 5 3 E 10

tt = Température de l'air
td = dewpoint
ff = Vitesse du vent
dd = Direction du vent
vv = visibility

stations d'obs. à proximité